sensor_id;sensor_type;location;lat;lon;timestamp;pressure;altitude;pressure_sealevel;temperature;humidity
18569;BME280;14780;48.316;-1.050;2023-08-06T00:02:25;99046.84;;;22.23;48.08
18569;BME280;14780;48.316;-1.050;2023-08-06T00:05:09;99048.72;;;22.23;47.87
18569;BME280;14780;48.316;-1.050;2023-08-06T00:07:54;99047.59;;;22.19;48.20
18569;BME280;14780;48.316;-1.050;2023-08-06T00:10:40;99052.53;;;22.22;48.03
18569;BME280;14780;48.316;-1.050;2023-08-06T00:13:26;99045.66;;;22.14;48.25
18569;BME280;14780;48.316;-1.050;2023-08-06T00:16:11;99059.31;;;22.19;48.19
18569;BME280;14780;48.316;-1.050;2023-08-06T00:18:56;99054.72;;;22.20;48.16
18569;BME280;14780;48.316;-1.050;2023-08-06T00:21:41;99049.25;;;22.20;47.98
18569;BME280;14780;48.316;-1.050;2023-08-06T00:24:25;99054.41;;;22.16;48.07
18569;BME280;14780;48.316;-1.050;2023-08-06T00:27:10;99054.41;;;22.16;48.05
18569;BME280;14780;48.316;-1.050;2023-08-06T00:29:55;99068.06;;;22.21;48.02
18569;BME280;14780;48.316;-1.050;2023-08-06T00:32:39;99047.31;;;22.15;48.06
18569;BME280;14780;48.316;-1.050;2023-08-06T00:35:24;99061.75;;;22.16;48.38
18569;BME280;14780;48.316;-1.050;2023-08-06T00:38:09;99060.16;;;22.20;48.00
18569;BME280;14780;48.316;-1.050;2023-08-06T00:40:53;99060.66;;;22.12;48.23
18569;BME280;14780;48.316;-1.050;2023-08-06T00:43:37;99065.81;;;22.13;48.16
18569;BME280;14780;48.316;-1.050;2023-08-06T00:46:22;99065.00;;;22.13;48.13
18569;BME280;14780;48.316;-1.050;2023-08-06T00:49:07;99064.47;;;22.16;48.25
18569;BME280;14780;48.316;-1.050;2023-08-06T00:51:52;99064.97;;;22.08;48.28
18569;BME280;14780;48.316;-1.050;2023-08-06T00:54:38;99072.09;;;22.14;48.08
18569;BME280;14780;48.316;-1.050;2023-08-06T00:57:25;99060.91;;;22.10;48.18
18569;BME280;14780;48.316;-1.050;2023-08-06T01:00:11;99058.72;;;22.12;48.24
18569;BME280;14780;48.316;-1.050;2023-08-06T01:02:57;99070.47;;;22.13;48.07
18569;BME280;14780;48.316;-1.050;2023-08-06T01:05:42;99075.06;;;22.12;48.11
18569;BME280;14780;48.316;-1.050;2023-08-06T01:11:59;99074.78;;;22.09;48.16
18569;BME280;14780;48.316;-1.050;2023-08-06T01:17:36;99079.41;;;22.08;48.23
18569;BME280;14780;48.316;-1.050;2023-08-06T01:20:22;99086.50;;;22.09;48.42
18569;BME280;14780;48.316;-1.050;2023-08-06T01:23:06;99096.06;;;22.12;48.25
18569;BME280;14780;48.316;-1.050;2023-08-06T01:25:55;99088.34;;;22.04;48.65
18569;BME280;14780;48.316;-1.050;2023-08-06T01:31:48;99109.41;;;22.08;48.28
18569;BME280;14780;48.316;-1.050;2023-08-06T01:34:35;99103.38;;;22.06;48.23
18569;BME280;14780;48.316;-1.050;2023-08-06T01:37:21;99096.56;;;22.09;48.04
18569;BME280;14780;48.316;-1.050;2023-08-06T01:40:16;99100.91;;;22.05;48.39
18569;BME280;14780;48.316;-1.050;2023-08-06T01:43:00;99097.09;;;22.06;48.52
18569;BME280;14780;48.316;-1.050;2023-08-06T01:45:45;99104.97;;;22.02;48.67
18569;BME280;14780;48.316;-1.050;2023-08-06T01:48:29;99108.50;;;22.03;48.51
18569;BME280;14780;48.316;-1.050;2023-08-06T01:51:14;99109.84;;;22.00;48.46
18569;BME280;14780;48.316;-1.050;2023-08-06T01:53:59;99111.81;;;22.05;48.35
18569;BME280;14780;48.316;-1.050;2023-08-06T01:56:44;99115.09;;;22.07;48.36
18569;BME280;14780;48.316;-1.050;2023-08-06T01:59:28;99126.78;;;22.02;48.67
18569;BME280;14780;48.316;-1.050;2023-08-06T02:02:13;99122.97;;;22.03;48.63
18569;BME280;14780;48.316;-1.050;2023-08-06T02:04:58;99128.41;;;22.03;48.25
18569;BME280;14780;48.316;-1.050;2023-08-06T02:07:43;99122.72;;;22.05;48.37
18569;BME280;14780;48.316;-1.050;2023-08-06T02:10:27;99135.72;;;21.98;48.52
18569;BME280;14780;48.316;-1.050;2023-08-06T02:13:12;99130.31;;;22.03;48.15
18569;BME280;14780;48.316;-1.050;2023-08-06T02:15:57;99132.47;;;22.01;48.27
18569;BME280;14780;48.316;-1.050;2023-08-06T02:18:41;99139.25;;;21.98;48.52
18569;BME280;14780;48.316;-1.050;2023-08-06T02:21:26;99140.59;;;21.96;48.58
18569;BME280;14780;48.316;-1.050;2023-08-06T02:24:10;99141.97;;;21.98;48.35
18569;BME280;14780;48.316;-1.050;2023-08-06T02:26:58;99147.19;;;22.00;48.45
18569;BME280;14780;48.316;-1.050;2023-08-06T02:29:43;99134.59;;;21.94;48.69
18569;BME280;14780;48.316;-1.050;2023-08-06T02:32:27;99135.97;;;21.96;48.68
18569;BME280;14780;48.316;-1.050;2023-08-06T02:35:14;99134.03;;;21.92;48.94
18569;BME280;14780;48.316;-1.050;2023-08-06T02:37:58;99136.78;;;21.97;48.64
18569;BME280;14780;48.316;-1.050;2023-08-06T02:40:44;99139.19;;;21.93;48.85
18569;BME280;14780;48.316;-1.050;2023-08-06T02:43:30;99143.91;;;21.98;48.47
18569;BME280;14780;48.316;-1.050;2023-08-06T02:46:15;99153.41;;;21.95;48.62
18569;BME280;14780;48.316;-1.050;2023-08-06T02:48:59;99147.38;;;21.93;48.74
18569;BME280;14780;48.316;-1.050;2023-08-06T02:51:45;99143.91;;;21.98;48.48
18569;BME280;14780;48.316;-1.050;2023-08-06T02:54:30;99139.47;;;21.92;48.49
18569;BME280;14780;48.316;-1.050;2023-08-06T02:57:14;99142.22;;;21.92;48.79
18569;BME280;14780;48.316;-1.050;2023-08-06T02:59:59;99147.91;;;21.90;48.83
18569;BME280;14780;48.316;-1.050;2023-08-06T03:02:43;99149.78;;;21.90;48.66
18569;BME280;14780;48.316;-1.050;2023-08-06T03:05:28;99150.38;;;21.92;48.64
18569;BME280;14780;48.316;-1.050;2023-08-06T03:08:13;99154.19;;;21.91;48.58
18569;BME280;14780;48.316;-1.050;2023-08-06T03:10:57;99151.72;;;21.89;48.96
18569;BME280;14780;48.316;-1.050;2023-08-06T03:13:42;99144.63;;;21.88;48.90
18569;BME280;14780;48.316;-1.050;2023-08-06T03:16:26;99153.03;;;21.87;48.83
18569;BME280;14780;48.316;-1.050;2023-08-06T03:19:11;99154.69;;;21.88;48.79
18569;BME280;14780;48.316;-1.050;2023-08-06T03:21:55;99154.69;;;21.88;48.96
18569;BME280;14780;48.316;-1.050;2023-08-06T03:24:39;99159.63;;;21.91;48.87
18569;BME280;14780;48.316;-1.050;2023-08-06T03:27:24;99153.03;;;21.87;48.86
18569;BME280;14780;48.316;-1.050;2023-08-06T03:30:09;99153.88;;;21.87;48.88
18569;BME280;14780;48.316;-1.050;2023-08-06T03:32:53;99156.31;;;21.89;48.64
18569;BME280;14780;48.316;-1.050;2023-08-06T03:35:38;99161.22;;;21.87;48.83
18569;BME280;14780;48.316;-1.050;2023-08-06T03:38:23;99165.03;;;21.86;48.68
18569;BME280;14780;48.316;-1.050;2023-08-06T03:41:08;99166.66;;;21.87;48.65
18569;BME280;14780;48.316;-1.050;2023-08-06T03:43:52;99165.81;;;21.86;48.85
18569;BME280;14780;48.316;-1.050;2023-08-06T03:46:37;99172.63;;;21.84;48.92
18569;BME280;14780;48.316;-1.050;2023-08-06T03:49:22;99171.25;;;21.81;49.09
18569;BME280;14780;48.316;-1.050;2023-08-06T03:52:06;99172.03;;;21.82;49.07
18569;BME280;14780;48.316;-1.050;2023-08-06T03:54:51;99172.56;;;21.79;48.90
18569;BME280;14780;48.316;-1.050;2023-08-06T03:57:36;99178.88;;;21.84;48.89
18569;BME280;14780;48.316;-1.050;2023-08-06T04:00:20;99183.47;;;21.79;48.88
18569;BME280;14780;48.316;-1.050;2023-08-06T04:03:05;99193.59;;;21.83;48.71
18569;BME280;14780;48.316;-1.050;2023-08-06T04:05:50;99189.75;;;21.79;48.87
18569;BME280;14780;48.316;-1.050;2023-08-06T04:08:34;99196.53;;;21.77;48.90
18569;BME280;14780;48.316;-1.050;2023-08-06T04:11:19;99191.88;;;21.77;48.85
18569;BME280;14780;48.316;-1.050;2023-08-06T04:14:03;99201.69;;;21.78;48.70
18569;BME280;14780;48.316;-1.050;2023-08-06T04:16:48;99196.25;;;21.78;49.03
18569;BME280;14780;48.316;-1.050;2023-08-06T04:19:33;99193.81;;;21.77;48.77
18569;BME280;14780;48.316;-1.050;2023-08-06T04:22:18;99204.41;;;21.78;48.84
18569;BME280;14780;48.316;-1.050;2023-08-06T04:25:03;99198.47;;;21.81;48.96
18569;BME280;14780;48.316;-1.050;2023-08-06T04:27:48;99202.78;;;21.77;49.07
18569;BME280;14780;48.316;-1.050;2023-08-06T04:30:33;99198.66;;;21.75;49.07
18569;BME280;14780;48.316;-1.050;2023-08-06T04:33:18;99197.03;;;21.74;48.91
18569;BME280;14780;48.316;-1.050;2023-08-06T04:36:03;99202.47;;;21.74;49.27
18569;BME280;14780;48.316;-1.050;2023-08-06T04:38:48;99208.94;;;21.68;49.17
18569;BME280;14780;48.316;-1.050;2023-08-06T04:41:33;99205.66;;;21.66;49.20
18569;BME280;14780;48.316;-1.050;2023-08-06T04:44:17;99218.81;;;21.74;48.83
18569;BME280;14780;48.316;-1.050;2023-08-06T04:47:02;99214.97;;;21.70;49.20
18569;BME280;14780;48.316;-1.050;2023-08-06T04:49:47;99223.13;;;21.70;48.96
18569;BME280;14780;48.316;-1.050;2023-08-06T04:52:31;99214.88;;;21.65;49.09
18569;BME280;14780;48.316;-1.050;2023-08-06T04:55:17;99229.56;;;21.64;48.99
18569;BME280;14780;48.316;-1.050;2023-08-06T04:58:02;99235.66;;;21.71;48.79
18569;BME280;14780;48.316;-1.050;2023-08-06T05:00:47;99243.75;;;21.66;49.01
18569;BME280;14780;48.316;-1.050;2023-08-06T05:03:31;99239.97;;;21.67;49.04
18569;BME280;14780;48.316;-1.050;2023-08-06T05:06:16;99248.72;;;21.69;48.97
18569;BME280;14780;48.316;-1.050;2023-08-06T05:09:00;99250.06;;;21.66;48.98
18569;BME280;14780;48.316;-1.050;2023-08-06T05:11:45;99261.25;;;21.70;48.90
18569;BME280;14780;48.316;-1.050;2023-08-06T05:14:30;99256.53;;;21.65;48.87
18569;BME280;14780;48.316;-1.050;2023-08-06T05:17:15;99255.50;;;21.66;48.93
18569;BME280;14780;48.316;-1.050;2023-08-06T05:19:59;99256.78;;;21.64;48.96
18569;BME280;14780;48.316;-1.050;2023-08-06T05:22:44;99264.41;;;21.62;48.97
18569;BME280;14780;48.316;-1.050;2023-08-06T05:25:29;99263.03;;;21.64;48.98
18569;BME280;14780;48.316;-1.050;2023-08-06T05:28:14;99264.41;;;21.62;49.07
18569;BME280;14780;48.316;-1.050;2023-08-06T05:30:58;99264.13;;;21.63;49.09
18569;BME280;14780;48.316;-1.050;2023-08-06T05:33:47;99260.09;;;21.66;48.88
18569;BME280;14780;48.316;-1.050;2023-08-06T05:36:31;99269.13;;;21.66;48.82
18569;BME280;14780;48.316;-1.050;2023-08-06T05:39:16;99265.75;;;21.64;48.77
18569;BME280;14780;48.316;-1.050;2023-08-06T05:42:01;99275.84;;;21.64;48.87
18569;BME280;14780;48.316;-1.050;2023-08-06T05:44:45;99283.19;;;21.63;49.16
18569;BME280;14780;48.316;-1.050;2023-08-06T05:47:30;99286.75;;;21.64;49.12
18569;BME280;14780;48.316;-1.050;2023-08-06T05:50:14;99287.41;;;21.71;48.79
18569;BME280;14780;48.316;-1.050;2023-08-06T05:52:59;99295.41;;;21.61;49.05
18569;BME280;14780;48.316;-1.050;2023-08-06T05:55:44;99293.75;;;21.60;48.97
18569;BME280;14780;48.316;-1.050;2023-08-06T05:58:29;99302.00;;;21.65;48.76
18569;BME280;14780;48.316;-1.050;2023-08-06T06:01:15;99306.28;;;21.61;48.96
18569;BME280;14780;48.316;-1.050;2023-08-06T06:03:59;99307.66;;;21.58;48.82
18569;BME280;14780;48.316;-1.050;2023-08-06T06:06:44;99309.44;;;21.53;49.00
18569;BME280;14780;48.316;-1.050;2023-08-06T06:09:29;99311.09;;;21.54;49.20
18569;BME280;14780;48.316;-1.050;2023-08-06T06:12:14;99321.50;;;21.57;48.78
18569;BME280;14780;48.316;-1.050;2023-08-06T06:14:58;99317.69;;;21.58;48.94
18569;BME280;14780;48.316;-1.050;2023-08-06T06:17:45;99330.66;;;21.51;49.13
18569;BME280;14780;48.316;-1.050;2023-08-06T06:20:31;99328.47;;;21.48;48.84
18569;BME280;14780;48.316;-1.050;2023-08-06T06:23:16;99337.44;;;21.48;48.83
18569;BME280;14780;48.316;-1.050;2023-08-06T06:26:01;99344.28;;;21.51;49.01
18569;BME280;14780;48.316;-1.050;2023-08-06T06:28:45;99343.84;;;21.59;48.84
18569;BME280;14780;48.316;-1.050;2023-08-06T06:31:30;99352.53;;;21.56;48.86
18569;BME280;14780;48.316;-1.050;2023-08-06T06:34:15;99354.66;;;21.54;48.81
18569;BME280;14780;48.316;-1.050;2023-08-06T06:36:59;99361.78;;;21.55;49.10
18569;BME280;14780;48.316;-1.050;2023-08-06T06:39:44;99366.63;;;21.53;49.19
18569;BME280;14780;48.316;-1.050;2023-08-06T06:42:29;99356.81;;;21.52;49.02
18569;BME280;14780;48.316;-1.050;2023-08-06T06:45:13;99361.25;;;21.58;48.70
18569;BME280;14780;48.316;-1.050;2023-08-06T06:47:58;99374.31;;;21.56;48.93
18569;BME280;14780;48.316;-1.050;2023-08-06T06:50:42;99368.88;;;21.56;48.72
18569;BME280;14780;48.316;-1.050;2023-08-06T06:53:27;99373.78;;;21.59;49.00
18569;BME280;14780;48.316;-1.050;2023-08-06T06:56:12;99377.03;;;21.56;49.17
18569;BME280;14780;48.316;-1.050;2023-08-06T06:58:56;99377.09;;;21.61;48.73
18569;BME280;14780;48.316;-1.050;2023-08-06T07:01:41;99386.94;;;21.62;49.01
18569;BME280;14780;48.316;-1.050;2023-08-06T07:04:25;99387.16;;;21.60;48.92
18569;BME280;14780;48.316;-1.050;2023-08-06T07:07:10;99390.97;;;21.59;48.84
18569;BME280;14780;48.316;-1.050;2023-08-06T07:09:55;99393.75;;;21.64;48.72
18569;BME280;14780;48.316;-1.050;2023-08-06T07:12:39;99394.09;;;21.68;48.55
18569;BME280;14780;48.316;-1.050;2023-08-06T07:15:24;99386.00;;;21.56;48.97
18569;BME280;14780;48.316;-1.050;2023-08-06T07:18:09;99394.81;;;21.63;48.93
18569;BME280;14780;48.316;-1.050;2023-08-06T07:20:54;99398.38;;;21.64;48.69
18569;BME280;14780;48.316;-1.050;2023-08-06T07:23:39;99402.44;;;21.61;48.73
18569;BME280;14780;48.316;-1.050;2023-08-06T07:26:23;99393.41;;;21.61;48.72
18569;BME280;14780;48.316;-1.050;2023-08-06T07:29:08;99406.06;;;21.67;48.62
18569;BME280;14780;48.316;-1.050;2023-08-06T07:31:53;99401.72;;;21.66;48.84
18569;BME280;14780;48.316;-1.050;2023-08-06T07:34:38;99403.19;;;21.73;48.47
18569;BME280;14780;48.316;-1.050;2023-08-06T07:37:22;99391.38;;;21.68;48.88
18569;BME280;14780;48.316;-1.050;2023-08-06T07:40:07;99400.19;;;21.75;48.67
18569;BME280;14780;48.316;-1.050;2023-08-06T07:42:53;99399.88;;;21.71;48.91
18569;BME280;14780;48.316;-1.050;2023-08-06T07:45:38;99404.00;;;21.74;48.75
18569;BME280;14780;48.316;-1.050;2023-08-06T07:48:23;99396.34;;;21.71;48.78
18569;BME280;14780;48.316;-1.050;2023-08-06T07:51:08;99404.28;;;21.72;48.95
18569;BME280;14780;48.316;-1.050;2023-08-06T07:53:52;99400.38;;;21.68;48.90
18569;BME280;14780;48.316;-1.050;2023-08-06T07:56:37;99391.78;;;21.76;48.78
18569;BME280;14780;48.316;-1.050;2023-08-06T07:59:23;99398.22;;;21.70;48.83
18569;BME280;14780;48.316;-1.050;2023-08-06T08:02:07;99398.06;;;21.77;48.77
18569;BME280;14780;48.316;-1.050;2023-08-06T08:04:52;99396.44;;;21.76;48.64
18569;BME280;14780;48.316;-1.050;2023-08-06T08:07:36;99405.66;;;21.75;48.76
18569;BME280;14780;48.316;-1.050;2023-08-06T08:10:21;99400.78;;;21.77;48.90
18569;BME280;14780;48.316;-1.050;2023-08-06T08:13:06;99404.59;;;21.76;48.93
18569;BME280;14780;48.316;-1.050;2023-08-06T08:15:56;99407.31;;;21.76;48.88
18569;BME280;14780;48.316;-1.050;2023-08-06T08:18:40;99405.97;;;21.78;48.61
18569;BME280;14780;48.316;-1.050;2023-08-06T08:21:25;99398.81;;;21.72;48.79
18569;BME280;14780;48.316;-1.050;2023-08-06T08:24:10;99406.16;;;21.72;48.91
18569;BME280;14780;48.316;-1.050;2023-08-06T08:26:54;99406.81;;;21.79;48.99
18569;BME280;14780;48.316;-1.050;2023-08-06T08:29:39;99390.47;;;21.79;48.96
18569;BME280;14780;48.316;-1.050;2023-08-06T08:32:24;99404.97;;;21.84;48.81
18569;BME280;14780;48.316;-1.050;2023-08-06T08:35:09;99398.63;;;21.79;48.98
18569;BME280;14780;48.316;-1.050;2023-08-06T08:37:54;99410.09;;;21.81;48.76
18569;BME280;14780;48.316;-1.050;2023-08-06T08:40:45;99415.28;;;21.82;48.80
18569;BME280;14780;48.316;-1.050;2023-08-06T08:43:30;99408.13;;;21.76;48.88
18569;BME280;14780;48.316;-1.050;2023-08-06T08:46:15;99414.41;;;21.77;48.93
18569;BME280;14780;48.316;-1.050;2023-08-06T08:49:02;99416.28;;;21.76;48.82
18569;BME280;14780;48.316;-1.050;2023-08-06T08:51:47;99410.28;;;21.74;48.70
18569;BME280;14780;48.316;-1.050;2023-08-06T08:54:35;99427.00;;;21.83;48.85
18569;BME280;14780;48.316;-1.050;2023-08-06T08:57:21;99424.03;;;21.84;48.54
18569;BME280;14780;48.316;-1.050;2023-08-06T09:00:06;99424.78;;;21.80;48.80
18569;BME280;14780;48.316;-1.050;2023-08-06T09:02:52;99419.16;;;21.86;48.96
18569;BME280;14780;48.316;-1.050;2023-08-06T09:05:43;99417.03;;;21.88;48.46
18569;BME280;14780;48.316;-1.050;2023-08-06T09:08:37;99413.13;;;21.84;48.47
18569;BME280;14780;48.316;-1.050;2023-08-06T09:11:22;99417.19;;;21.82;48.90
18569;BME280;14780;48.316;-1.050;2023-08-06T09:14:08;99409.66;;;21.89;48.37
18569;BME280;14780;48.316;-1.050;2023-08-06T09:16:53;99416.75;;;21.90;48.43
18569;BME280;14780;48.316;-1.050;2023-08-06T09:19:42;99430.00;;;22.03;48.09
18569;BME280;14780;48.316;-1.050;2023-08-06T09:22:35;99426.28;;;21.87;48.29
18569;BME280;14780;48.316;-1.050;2023-08-06T09:25:24;99431.44;;;21.89;47.88
18569;BME280;14780;48.316;-1.050;2023-08-06T09:28:10;99434.19;;;21.89;47.76
18569;BME280;14780;48.316;-1.050;2023-08-06T09:30:54;99428.88;;;21.99;47.87
18569;BME280;14780;48.316;-1.050;2023-08-06T09:33:40;99426.53;;;22.07;47.90
18569;BME280;14780;48.316;-1.050;2023-08-06T09:36:24;99428.53;;;22.12;47.95
18569;BME280;14780;48.316;-1.050;2023-08-06T09:39:17;99435.78;;;22.06;47.51
18569;BME280;14780;48.316;-1.050;2023-08-06T09:42:02;99441.88;;;22.13;47.64
18569;BME280;14780;48.316;-1.050;2023-08-06T09:44:48;99437.25;;;22.14;47.81
18569;BME280;14780;48.316;-1.050;2023-08-06T09:47:32;99452.97;;;22.07;47.94
18569;BME280;14780;48.316;-1.050;2023-08-06T09:50:18;99452.97;;;22.07;47.62
18569;BME280;14780;48.316;-1.050;2023-08-06T09:53:05;99439.91;;;22.09;47.19
18569;BME280;14780;48.316;-1.050;2023-08-06T09:55:50;99442.72;;;22.14;47.54
18569;BME280;14780;48.316;-1.050;2023-08-06T09:58:35;99448.16;;;22.14;47.54
18569;BME280;14780;48.316;-1.050;2023-08-06T10:01:22;99448.81;;;22.21;47.34
18569;BME280;14780;48.316;-1.050;2023-08-06T10:04:07;99465.81;;;22.28;47.54
18569;BME280;14780;48.316;-1.050;2023-08-06T10:06:57;99458.72;;;22.27;47.39
18569;BME280;14780;48.316;-1.050;2023-08-06T10:09:42;99451.41;;;22.32;47.58
18569;BME280;14780;48.316;-1.050;2023-08-06T10:12:29;99455.00;;;22.38;47.44
18569;BME280;14780;48.316;-1.050;2023-08-06T10:15:22;99463.75;;;22.40;47.31
18569;BME280;14780;48.316;-1.050;2023-08-06T10:18:08;99469.22;;;22.40;47.39
18569;BME280;14780;48.316;-1.050;2023-08-06T10:20:54;99477.50;;;22.45;47.34
18569;BME280;14780;48.316;-1.050;2023-08-06T10:23:41;99483.03;;;22.50;47.28
18569;BME280;14780;48.316;-1.050;2023-08-06T10:26:29;99477.00;;;22.48;47.23
18569;BME280;14780;48.316;-1.050;2023-08-06T10:29:36;99477.81;;;22.48;47.00
18569;BME280;14780;48.316;-1.050;2023-08-06T10:32:21;99484.09;;;22.49;47.31
18569;BME280;14780;48.316;-1.050;2023-08-06T10:35:06;99489.59;;;22.54;47.09
18569;BME280;14780;48.316;-1.050;2023-08-06T10:37:51;99491.50;;;22.53;47.27
18569;BME280;14780;48.316;-1.050;2023-08-06T10:41:01;99480.63;;;22.53;47.08
18569;BME280;14780;48.316;-1.050;2023-08-06T10:43:48;99492.84;;;22.51;46.99
18569;BME280;14780;48.316;-1.050;2023-08-06T10:46:33;99485.53;;;22.56;46.96
18569;BME280;14780;48.316;-1.050;2023-08-06T10:49:18;99491.25;;;22.55;46.94
18569;BME280;14780;48.316;-1.050;2023-08-06T10:52:03;99504.28;;;22.48;46.94
18569;BME280;14780;48.316;-1.050;2023-08-06T10:54:48;99498.81;;;22.48;47.08
18569;BME280;14780;48.316;-1.050;2023-08-06T10:57:32;99500.47;;;22.49;47.02
18569;BME280;14780;48.316;-1.050;2023-08-06T11:00:17;99508.19;;;22.57;46.92
18569;BME280;14780;48.316;-1.050;2023-08-06T11:03:03;99514.78;;;22.61;47.04
18569;BME280;14780;48.316;-1.050;2023-08-06T11:05:51;99518.59;;;22.60;47.03
18569;BME280;14780;48.316;-1.050;2023-08-06T11:08:38;99519.75;;;22.64;46.98
18569;BME280;14780;48.316;-1.050;2023-08-06T11:11:24;99514.84;;;22.66;46.94
18569;BME280;14780;48.316;-1.050;2023-08-06T11:14:15;99515.94;;;22.65;47.02
18569;BME280;14780;48.316;-1.050;2023-08-06T11:17:01;99505.50;;;22.62;47.25
18569;BME280;14780;48.316;-1.050;2023-08-06T11:19:45;99518.09;;;22.63;47.26
18569;BME280;14780;48.316;-1.050;2023-08-06T11:22:31;99512.13;;;22.66;47.11
18569;BME280;14780;48.316;-1.050;2023-08-06T11:25:16;99511.50;;;22.59;47.15
18569;BME280;14780;48.316;-1.050;2023-08-06T11:28:01;99514.78;;;22.61;47.05
18569;BME280;14780;48.316;-1.050;2023-08-06T11:30:46;99512.13;;;22.66;47.08
18569;BME280;14780;48.316;-1.050;2023-08-06T11:33:31;99510.78;;;22.68;47.02
18569;BME280;14780;48.316;-1.050;2023-08-06T11:36:16;99507.31;;;22.73;46.88
18569;BME280;14780;48.316;-1.050;2023-08-06T11:39:03;99510.91;;;22.78;46.97
18569;BME280;14780;48.316;-1.050;2023-08-06T11:41:52;99502.47;;;22.80;46.77
18569;BME280;14780;48.316;-1.050;2023-08-06T11:44:37;99502.47;;;22.80;46.98
18569;BME280;14780;48.316;-1.050;2023-08-06T11:47:22;99499.59;;;22.91;46.80
18569;BME280;14780;48.316;-1.050;2023-08-06T11:50:07;99492.50;;;22.90;46.72
18569;BME280;14780;48.316;-1.050;2023-08-06T11:53:00;99499.91;;;22.95;46.54
18569;BME280;14780;48.316;-1.050;2023-08-06T11:55:45;99497.75;;;22.97;46.57
18569;BME280;14780;48.316;-1.050;2023-08-06T11:58:30;99493.44;;;23.01;46.51
18569;BME280;14780;48.316;-1.050;2023-08-06T12:01:15;99488.78;;;23.01;46.57
18569;BME280;14780;48.316;-1.050;2023-08-06T12:04:00;99484.16;;;23.02;46.53
18569;BME280;14780;48.316;-1.050;2023-08-06T12:06:45;99484.69;;;22.99;46.64
18569;BME280;14780;48.316;-1.050;2023-08-06T12:09:29;99487.72;;;23.02;46.30
18569;BME280;14780;48.316;-1.050;2023-08-06T12:12:14;99483.00;;;22.98;46.40
18569;BME280;14780;48.316;-1.050;2023-08-06T12:14:59;99492.28;;;22.97;46.46
18569;BME280;14780;48.316;-1.050;2023-08-06T12:17:44;99489.09;;;23.05;46.56
18569;BME280;14780;48.316;-1.050;2023-08-06T12:20:29;99495.91;;;23.02;46.40
18569;BME280;14780;48.316;-1.050;2023-08-06T12:23:13;99488.38;;;23.14;46.33
18569;BME280;14780;48.316;-1.050;2023-08-06T12:25:59;99484.59;;;23.15;46.35
18569;BME280;14780;48.316;-1.050;2023-08-06T12:28:44;99482.13;;;23.14;46.38
18569;BME280;14780;48.316;-1.050;2023-08-06T12:31:29;99487.06;;;23.17;46.34
18569;BME280;14780;48.316;-1.050;2023-08-06T12:34:13;99479.56;;;23.29;46.20
18569;BME280;14780;48.316;-1.050;2023-08-06T12:36:58;99479.09;;;23.37;46.09
18569;BME280;14780;48.316;-1.050;2023-08-06T12:39:43;99491.66;;;23.38;46.27
18569;BME280;14780;48.316;-1.050;2023-08-06T12:42:27;99488.19;;;23.47;45.72
18569;BME280;14780;48.316;-1.050;2023-08-06T12:45:12;99491.19;;;23.45;45.73
18569;BME280;14780;48.316;-1.050;2023-08-06T12:47:57;99493.97;;;23.50;45.82
18569;BME280;14780;48.316;-1.050;2023-08-06T12:50:41;99494.25;;;23.54;45.57
18569;BME280;14780;48.316;-1.050;2023-08-06T12:53:26;99490.97;;;23.52;45.78
18569;BME280;14780;48.316;-1.050;2023-08-06T12:56:10;99498.63;;;23.55;45.73
18569;BME280;14780;48.316;-1.050;2023-08-06T12:58:55;99497.81;;;23.54;45.95
18569;BME280;14780;48.316;-1.050;2023-08-06T13:01:40;99502.47;;;23.54;45.89
18569;BME280;14780;48.316;-1.050;2023-08-06T13:04:25;99505.19;;;23.54;45.84
18569;BME280;14780;48.316;-1.050;2023-08-06T13:07:09;99507.63;;;23.50;46.06
18569;BME280;14780;48.316;-1.050;2023-08-06T13:09:54;99503.78;;;23.51;45.98
18569;BME280;14780;48.316;-1.050;2023-08-06T13:12:39;99503.00;;;23.56;45.87
18569;BME280;14780;48.316;-1.050;2023-08-06T13:15:23;99490.22;;;23.61;45.84
18569;BME280;14780;48.316;-1.050;2023-08-06T13:18:08;99494.63;;;23.67;45.81
18569;BME280;14780;48.316;-1.050;2023-08-06T13:20:54;99495.25;;;23.74;45.81
18569;BME280;14780;48.316;-1.050;2023-08-06T13:23:39;99491.47;;;23.80;45.43
18569;BME280;14780;48.316;-1.050;2023-08-06T13:26:23;99495.34;;;23.84;45.51
18569;BME280;14780;48.316;-1.050;2023-08-06T13:29:08;99497.59;;;23.92;45.31
18569;BME280;14780;48.316;-1.050;2023-08-06T13:31:53;99502.53;;;23.95;45.15
18569;BME280;14780;48.316;-1.050;2023-08-06T13:34:38;99506.66;;;23.98;45.17
18569;BME280;14780;48.316;-1.050;2023-08-06T13:37:23;99504.28;;;24.06;45.03
18569;BME280;14780;48.316;-1.050;2023-08-06T13:40:07;99499.91;;;24.10;44.83
18569;BME280;14780;48.316;-1.050;2023-08-06T13:42:53;99508.66;;;24.12;45.08
18569;BME280;14780;48.316;-1.050;2023-08-06T13:45:37;99504.28;;;24.11;44.99
18569;BME280;14780;48.316;-1.050;2023-08-06T13:48:22;99504.56;;;24.15;45.01
18569;BME280;14780;48.316;-1.050;2023-08-06T13:51:07;99508.19;;;24.20;44.72
18569;BME280;14780;48.316;-1.050;2023-08-06T13:53:52;99510.66;;;24.27;44.69
18569;BME280;14780;48.316;-1.050;2023-08-06T13:56:38;99507.69;;;24.28;44.54
18569;BME280;14780;48.316;-1.050;2023-08-06T13:59:23;99506.88;;;24.38;44.54
18569;BME280;14780;48.316;-1.050;2023-08-06T14:02:09;99502.50;;;24.37;44.41
18569;BME280;14780;48.316;-1.050;2023-08-06T14:04:54;99501.75;;;24.46;44.32
18569;BME280;14780;48.316;-1.050;2023-08-06T14:07:39;99504.47;;;24.46;44.26
18569;BME280;14780;48.316;-1.050;2023-08-06T14:10:23;99504.47;;;24.46;44.35
18569;BME280;14780;48.316;-1.050;2023-08-06T14:13:08;99507.75;;;24.48;44.29
18569;BME280;14780;48.316;-1.050;2023-08-06T14:15:52;99511.63;;;24.52;44.19
18569;BME280;14780;48.316;-1.050;2023-08-06T14:18:37;99508.13;;;24.57;44.16
18569;BME280;14780;48.316;-1.050;2023-08-06T14:21:23;99512.75;;;24.56;44.13
18569;BME280;14780;48.316;-1.050;2023-08-06T14:24:07;99506.22;;;24.62;44.32
18569;BME280;14780;48.316;-1.050;2023-08-06T14:26:52;99507.88;;;24.63;44.11
18569;BME280;14780;48.316;-1.050;2023-08-06T14:29:36;99512.28;;;24.69;44.02
18569;BME280;14780;48.316;-1.050;2023-08-06T14:32:21;99511.47;;;24.74;44.10
18569;BME280;14780;48.316;-1.050;2023-08-06T14:35:06;99513.44;;;24.78;43.97